Freeville, New York
Current Conditions -  °F | °C
As of 2:56 PM on Friday 28 Nov 2014 (Local Time) from KITH Reporting Station
Broken Clouds Broken Clouds  
Wind Chill: 14°   Ceiling: 4000
Heat Index: 25°   Visibility: 10mi
Dew Point: 10°   Wind: 13mph
Humidity: 53%   Direction: 290°WNW
Pressure: 30.18"   Gusts: NA
Location:  42.51°N, 76.35°W
Report Text: KITH 281956Z 29011KT 10SM BKN040 M04/M12 A3018 RMK AO2 T10381122 SLP236
Loading
Personal Weather Stations






























Interactive Weather Map New forecast layout! Learn more

10-Day Weather Forecast

Advertisements
Track Severe Weather on mobile